Time;durP1;ratioP1;P1;durP2;ratioP2;P2;SDS_P1;SDS_P2;PMS_P1;PMS_P2;Temp;Humidity;BMP_temperature;BMP_pressure;BME280_temperature;BME280_humidity;BME280_pressure;Samples;Min_cycle;Max_cycle;Signal;HPM_P1;HPM_P2
2022/05/12 00:01:45;;;;;;;;;;;10.30;99.90;;;;;;4932127;29;19923;-70
2022/05/12 00:04:10;;;;;;;;;;;10.20;99.90;;;;;;4937007;29;19927;-71
2022/05/12 00:06:39;;;;;;;;;;;10.20;99.90;;;;;;4920275;29;19923;-70
2022/05/12 00:09:04;;;;;;;;;;;10.20;99.90;;;;;;4935971;29;19927;-71
2022/05/12 00:11:30;;;;;;;;;;;10.10;99.90;;;;;;4936512;29;19949;-70
2022/05/12 00:13:56;;;;;;;;;;;10.10;99.90;;;;;;4936984;29;19923;-71
2022/05/12 00:16:22;;;;;;;;;;;10.10;99.90;;;;;;4936553;29;19938;-71
2022/05/12 00:18:48;;;;;;;;;;;10.00;99.90;;;;;;4936587;29;20373;-72
2022/05/12 00:21:16;;;;;;;;;;;10.10;99.90;;;;;;4935493;29;20027;-71
2022/05/12 00:23:56;;;;;;;;;;;10.10;99.90;;;;;;4920039;29;19923;-70
2022/05/12 00:26:25;;;;;;;;;;;10.10;99.90;;;;;;4936492;29;19923;-70
2022/05/12 00:28:51;;;;;;;;;;;10.00;99.90;;;;;;4936481;29;19922;-71
2022/05/12 00:31:20;;;;;;;;;;;10.00;99.90;;;;;;4919024;29;19930;-70
2022/05/12 00:33:45;;;;;;;;;;;10.30;99.90;;;;;;4937072;29;19931;-71
2022/05/12 00:36:11;;;;;;;;;;;10.00;99.90;;;;;;4919556;29;19930;-71
2022/05/12 00:38:37;;;;;;;;;;;10.00;99.90;;;;;;4919620;29;20355;-70
2022/05/12 00:41:02;;;;;;;;;;;10.00;99.90;;;;;;4937306;29;19931;-70
2022/05/12 00:43:33;;;;;;;;;;;10.00;99.90;;;;;;4935639;29;20338;-71
2022/05/12 00:45:58;;;;;;;;;;;10.00;99.90;;;;;;4934310;29;20410;-71
2022/05/12 00:48:24;;;;;;;;;;;10.00;99.90;;;;;;4920725;29;19953;-71
2022/05/12 00:50:50;;;;;;;;;;;9.90;99.90;;;;;;4919493;29;19974;-71
2022/05/12 00:53:16;;;;;;;;;;;9.90;99.90;;;;;;4937167;29;19923;-71
2022/05/12 00:55:43;;;;;;;;;;;9.90;99.90;;;;;;4924687;29;19969;-71
2022/05/12 00:58:10;;;;;;;;;;;9.90;99.90;;;;;;4939193;29;19941;-71
2022/05/12 01:00:37;;;;;;;;;;;9.80;99.90;;;;;;4923054;29;19958;-71
2022/05/12 01:03:04;;;;;;;;;;;9.80;99.90;;;;;;4939013;29;19923;-71
2022/05/12 01:05:30;;;;;;;;;;;9.80;99.90;;;;;;4939339;29;19926;-71
2022/05/12 01:07:59;;;;;;;;;;;9.80;99.90;;;;;;4923652;29;19930;-71
2022/05/12 01:10:25;;;;;;;;;;;9.80;99.90;;;;;;4922785;29;19926;-71
2022/05/12 01:12:51;;;;;;;;;;;10.10;99.90;;;;;;4940827;29;20010;-71
2022/05/12 01:15:18;;;;;;;;;;;9.80;99.90;;;;;;4923641;29;19982;-70
2022/05/12 01:17:44;;;;;;;;;;;9.70;99.90;;;;;;4922857;29;20286;-70
2022/05/12 01:20:11;;;;;;;;;;;9.80;99.90;;;;;;4923360;29;19966;-73
2022/05/12 01:22:42;;;;;;;;;;;9.80;99.90;;;;;;4922482;29;19922;-71
2022/05/12 01:25:10;;;;;;;;;;;9.80;99.90;;;;;;4922984;29;19923;-70
2022/05/12 01:27:35;;;;;;;;;;;9.80;99.90;;;;;;4940916;29;19962;-71
2022/05/12 01:30:01;;;;;;;;;;;9.70;99.90;;;;;;4923280;29;20248;-70
2022/05/12 01:32:27;;;;;;;;;;;9.80;99.90;;;;;;4938324;29;19931;-71
2022/05/12 01:34:53;;;;;;;;;;;9.70;99.90;;;;;;4922106;29;19965;-71
2022/05/12 01:37:19;;;;;;;;;;;9.80;99.90;;;;;;4923059;29;19926;-71
2022/05/12 01:39:45;;;;;;;;;;;9.70;99.90;;;;;;4939593;29;20511;-72
2022/05/12 01:42:11;;;;;;;;;;;9.80;99.90;;;;;;4939615;29;20366;-71
2022/05/12 01:44:36;;;;;;;;;;;9.70;99.90;;;;;;4923564;29;19991;-71
2022/05/12 01:47:03;;;;;;;;;;;9.70;99.90;;;;;;4923134;29;20009;-71
2022/05/12 01:49:28;;;;;;;;;;;9.70;99.90;;;;;;4923294;29;19927;-71
2022/05/12 01:51:55;;;;;;;;;;;9.70;99.90;;;;;;4923188;29;20287;-71
2022/05/12 01:54:20;;;;;;;;;;;9.70;99.90;;;;;;4922303;29;19922;-71
2022/05/12 01:56:46;;;;;;;;;;;9.70;99.90;;;;;;4923463;29;19923;-71
2022/05/12 01:59:12;;;;;;;;;;;9.70;99.90;;;;;;4938396;29;20409;-71
2022/05/12 02:01:38;;;;;;;;;;;9.70;99.90;;;;;;4922951;29;19929;-71
2022/05/12 02:04:05;;;;;;;;;;;9.70;99.90;;;;;;4937470;29;19926;-71
2022/05/12 02:06:33;;;;;;;;;;;9.70;99.90;;;;;;4921125;29;20433;-71
2022/05/12 02:08:59;;;;;;;;;;;9.70;99.90;;;;;;4938750;29;19922;-71
2022/05/12 02:11:25;;;;;;;;;;;9.80;99.90;;;;;;4922428;29;19923;-72
2022/05/12 02:13:50;;;;;;;;;;;9.70;99.90;;;;;;4938340;29;19923;-71
2022/05/12 02:16:16;;;;;;;;;;;9.70;99.90;;;;;;4921444;29;19929;-72
2022/05/12 02:18:43;;;;;;;;;;;9.80;99.90;;;;;;4937408;29;19922;-71
2022/05/12 02:21:08;;;;;;;;;;;9.70;99.90;;;;;;4938831;29;19949;-72
2022/05/12 02:23:34;;;;;;;;;;;9.70;99.90;;;;;;4939620;29;20359;-71
2022/05/12 02:25:59;;;;;;;;;;;9.70;99.90;;;;;;4922465;29;19922;-71
2022/05/12 02:28:25;;;;;;;;;;;9.70;99.90;;;;;;4921549;29;19926;-71
2022/05/12 02:30:50;;;;;;;;;;;9.70;99.90;;;;;;4939149;29;19929;-71
2022/05/12 02:33:18;;;;;;;;;;;9.60;99.90;;;;;;4935511;29;19970;-71
2022/05/12 02:35:44;;;;;;;;;;;9.60;99.90;;;;;;4918376;29;20205;-71
2022/05/12 02:38:10;;;;;;;;;;;9.60;99.90;;;;;;4919132;29;20371;-71
2022/05/12 02:40:36;;;;;;;;;;;9.60;99.90;;;;;;4919315;29;20294;-71
2022/05/12 02:43:01;;;;;;;;;;;9.60;99.90;;;;;;4918308;29;19923;-71
2022/05/12 02:45:27;;;;;;;;;;;9.60;99.90;;;;;;4902005;29;19927;-71
2022/05/12 02:47:53;;;;;;;;;;;9.50;99.90;;;;;;4920270;29;20298;-71
2022/05/12 02:50:19;;;;;;;;;;;9.50;99.90;;;;;;4918595;29;19927;-71
2022/05/12 02:52:49;;;;;;;;;;;9.50;99.90;;;;;;4919986;29;20041;-72
2022/05/12 02:55:15;;;;;;;;;;;9.60;99.90;;;;;;4935346;29;19974;-71
2022/05/12 02:57:41;;;;;;;;;;;9.60;99.90;;;;;;4918954;29;20323;-71
2022/05/12 03:00:08;;;;;;;;;;;9.60;99.90;;;;;;4919303;29;19930;-71
2022/05/12 03:02:33;;;;;;;;;;;9.60;99.90;;;;;;4918047;29;19923;-71
2022/05/12 03:04:59;;;;;;;;;;;9.60;99.90;;;;;;4921269;29;19997;-71
2022/05/12 03:07:24;;;;;;;;;;;9.60;99.90;;;;;;4904533;29;19927;-71
2022/05/12 03:09:50;;;;;;;;;;;9.60;99.90;;;;;;4900344;29;19923;-71
2022/05/12 03:12:15;;;;;;;;;;;9.70;99.90;;;;;;4901779;29;20017;-71
2022/05/12 03:14:47;;;;;;;;;;;9.70;99.90;;;;;;4920214;29;19923;-71
2022/05/12 03:17:12;;;;;;;;;;;9.70;99.90;;;;;;4917864;29;19930;-71
2022/05/12 03:19:38;;;;;;;;;;;9.70;99.90;;;;;;4932399;29;19922;-71
2022/05/12 03:22:03;;;;;;;;;;;9.70;99.90;;;;;;4921221;29;19927;-70
2022/05/12 03:24:29;;;;;;;;;;;9.70;99.90;;;;;;4929811;29;19969;-69
2022/05/12 03:26:57;;;;;;;;;;;9.70;99.90;;;;;;4902436;29;19942;-69
2022/05/12 03:29:23;;;;;;;;;;;9.70;99.90;;;;;;4910614;29;19918;-71
2022/05/12 03:31:48;;;;;;;;;;;9.70;99.90;;;;;;4915375;29;20347;-71
2022/05/12 03:34:14;;;;;;;;;;;9.70;99.90;;;;;;4903481;29;20005;-72
2022/05/12 03:36:40;;;;;;;;;;;9.80;99.90;;;;;;4937684;29;19958;-72
2022/05/12 03:39:07;;;;;;;;;;;9.80;99.90;;;;;;4920067;29;20334;-72
2022/05/12 03:41:33;;;;;;;;;;;9.80;99.90;;;;;;4937229;29;19922;-72
2022/05/12 03:46:42;;;;;;;;;;;9.80;99.90;;;;;;4937152;29;19923;-73
2022/05/12 03:49:08;;;;;;;;;;;9.80;99.90;;;;;;4919518;29;19986;-72
2022/05/12 03:51:33;;;;;;;;;;;9.80;99.90;;;;;;4935724;29;19946;-72
2022/05/12 03:53:59;;;;;;;;;;;9.70;99.90;;;;;;4938008;29;19930;-72
2022/05/12 03:56:27;;;;;;;;;;;9.90;99.90;;;;;;4920117;29;20393;-71
2022/05/12 03:58:53;;;;;;;;;;;9.80;99.90;;;;;;4920435;29;19941;-72
2022/05/12 04:01:18;;;;;;;;;;;9.80;99.90;;;;;;4937315;29;20390;-72
2022/05/12 04:03:45;;;;;;;;;;;9.80;99.90;;;;;;4937880;29;19922;-73
2022/05/12 04:06:11;;;;;;;;;;;9.80;99.90;;;;;;4936133;29;20414;-73
2022/05/12 04:08:36;;;;;;;;;;;9.80;99.90;;;;;;4919517;29;19962;-72
2022/05/12 04:11:02;;;;;;;;;;;9.80;99.90;;;;;;4937384;29;20286;-72
2022/05/12 04:13:27;;;;;;;;;;;9.70;99.90;;;;;;4935625;29;20038;-72
2022/05/12 04:15:53;;;;;;;;;;;9.70;99.90;;;;;;4937107;29;19923;-72
2022/05/12 04:18:19;;;;;;;;;;;9.70;99.90;;;;;;4920686;29;19982;-72
2022/05/12 04:20:44;;;;;;;;;;;9.70;99.90;;;;;;4919669;29;20394;-72
2022/05/12 04:23:12;;;;;;;;;;;9.80;99.90;;;;;;4922579;29;19923;-72
2022/05/12 04:25:38;;;;;;;;;;;9.80;99.90;;;;;;4916513;29;19923;-72
2022/05/12 04:28:04;;;;;;;;;;;9.90;99.90;;;;;;4916928;29;20275;-72
2022/05/12 04:30:30;;;;;;;;;;;9.80;99.90;;;;;;4924718;29;19962;-75
2022/05/12 04:35:09;;;;;;;;;;;9.90;99.90;;;;;;4919841;29;19923;-72
2022/05/12 04:35:44;;;;;;;;;;;9.90;99.90;;;;;;4935917;29;20001;-72
2022/05/12 04:38:10;;;;;;;;;;;10.60;99.90;;;;;;4919544;29;19918;-73
2022/05/12 04:40:36;;;;;;;;;;;10.10;99.90;;;;;;4920792;29;19923;-71
2022/05/12 04:43:02;;;;;;;;;;;9.90;99.90;;;;;;4936146;29;19922;-71
2022/05/12 04:45:29;;;;;;;;;;;9.90;99.90;;;;;;4919551;29;20401;-71
2022/05/12 04:47:57;;;;;;;;;;;9.90;99.90;;;;;;4920148;29;19927;-72
2022/05/12 04:50:25;;;;;;;;;;;10.00;99.90;;;;;;4918408;29;19923;-72
2022/05/12 04:52:51;;;;;;;;;;;10.00;99.90;;;;;;4936295;29;19930;-74
2022/05/12 04:55:16;;;;;;;;;;;10.00;99.90;;;;;;4919092;29;19923;-72
2022/05/12 04:57:43;;;;;;;;;;;10.10;99.90;;;;;;4937563;29;19927;-77
2022/05/12 05:00:13;;;;;;;;;;;10.10;99.90;;;;;;4937766;29;20401;-76
2022/05/12 05:02:39;;;;;;;;;;;10.10;99.90;;;;;;4920290;29;20009;-74
2022/05/12 05:05:05;;;;;;;;;;;10.10;99.90;;;;;;4937473;29;19965;-81
2022/05/12 05:07:30;;;;;;;;;;;10.10;99.90;;;;;;4936797;29;19947;-83
2022/05/12 05:09:59;;;;;;;;;;;10.20;99.90;;;;;;4918981;29;20367;-81
2022/05/12 05:12:25;;;;;;;;;;;10.20;99.90;;;;;;4943552;23;19922;-75
2022/05/12 05:14:51;;;;;;;;;;;10.30;99.90;;;;;;4919622;29;20322;-75
2022/05/12 05:17:16;;;;;;;;;;;10.30;99.90;;;;;;4918958;29;19927;-74
2022/05/12 05:19:42;;;;;;;;;;;10.30;99.90;;;;;;4937122;29;19922;-75
2022/05/12 05:22:07;;;;;;;;;;;10.30;99.90;;;;;;4939853;29;19929;-75
2022/05/12 05:24:34;;;;;;;;;;;10.40;99.90;;;;;;4937510;29;20338;-77
2022/05/12 05:27:28;;;;;;;;;;;10.40;99.90;;;;;;4954950;29;19970;-75
2022/05/12 05:29:54;;;;;;;;;;;10.50;99.90;;;;;;4923707;29;19922;-73
2022/05/12 05:32:20;;;;;;;;;;;10.50;99.90;;;;;;4938254;29;19933;-72
2022/05/12 05:34:46;;;;;;;;;;;10.60;99.90;;;;;;4938619;29;19989;-73
2022/05/12 05:37:12;;;;;;;;;;;10.70;99.90;;;;;;4955107;29;19922;-71
2022/05/12 05:39:37;;;;;;;;;;;10.80;99.90;;;;;;4957044;28;19922;-73
2022/05/12 05:42:11;;;;;;;;;;;10.90;99.90;;;;;;4959202;29;19933;-72
2022/05/12 05:44:37;;;;;;;;;;;11.00;99.90;;;;;;4958567;29;20017;-73
2022/05/12 05:47:03;;;;;;;;;;;11.00;99.90;;;;;;4941340;29;19988;-73
2022/05/12 05:49:30;;;;;;;;;;;11.10;99.90;;;;;;4958419;29;20425;-72
2022/05/12 05:54:40;;;;;;;;;;;11.20;99.90;;;;;;4941884;29;19927;-69
2022/05/12 05:57:06;;;;;;;;;;;11.30;99.90;;;;;;4957802;29;19969;-70
2022/05/12 05:59:32;;;;;;;;;;;11.30;99.90;;;;;;4940110;29;19922;-69
2022/05/12 06:01:57;;;;;;;;;;;11.30;99.90;;;;;;4941208;29;19923;-70
2022/05/12 06:04:23;;;;;;;;;;;11.40;99.90;;;;;;4957494;29;19930;-73
2022/05/12 06:06:49;;;;;;;;;;;12.00;99.90;;;;;;4941149;29;19938;-74
2022/05/12 06:09:14;;;;;;;;;;;11.50;99.90;;;;;;4941532;29;20358;-74
2022/05/12 06:11:44;;;;;;;;;;;11.50;99.90;;;;;;4958851;29;19929;-72
2022/05/12 06:14:10;;;;;;;;;;;11.50;99.90;;;;;;4957220;29;19928;-73
2022/05/12 06:16:36;;;;;;;;;;;11.60;99.90;;;;;;4941317;29;20410;-73
2022/05/12 06:21:34;;;;;;;;;;;11.80;99.90;;;;;;5168679;23;19915;-74
2022/05/12 06:26:42;;;;;;;;;;;11.80;99.90;;;;;;5000315;23;19980;-75
2022/05/12 06:29:07;;;;;;;;;;;11.90;99.90;;;;;;4922411;29;19923;-74
2022/05/12 06:31:34;;;;;;;;;;;12.00;99.90;;;;;;4940369;29;19923;-75
2022/05/12 06:33:59;;;;;;;;;;;12.00;99.90;;;;;;4922926;29;19923;-75
2022/05/12 06:36:26;;;;;;;;;;;12.10;99.90;;;;;;4942208;29;19929;-75
2022/05/12 06:38:51;;;;;;;;;;;12.10;99.90;;;;;;4958696;29;20282;-74
2022/05/12 06:41:17;;;;;;;;;;;12.20;99.90;;;;;;4958191;29;19922;-74
2022/05/12 06:43:45;;;;;;;;;;;12.30;99.90;;;;;;4941542;29;19922;-75
2022/05/12 06:46:11;;;;;;;;;;;12.30;99.90;;;;;;4958255;29;19926;-75
2022/05/12 06:48:37;;;;;;;;;;;12.40;99.90;;;;;;4957865;29;20334;-75
2022/05/12 06:51:02;;;;;;;;;;;12.50;99.90;;;;;;4940382;29;19930;-75
2022/05/12 06:53:28;;;;;;;;;;;12.50;99.90;;;;;;4940581;29;19926;-75
2022/05/12 06:55:53;;;;;;;;;;;12.50;99.90;;;;;;4958109;29;20017;-76
2022/05/12 06:58:19;;;;;;;;;;;12.60;99.90;;;;;;4939512;29;19966;-74
2022/05/12 07:00:45;;;;;;;;;;;12.70;99.90;;;;;;4940854;29;19922;-75
2022/05/12 07:03:13;;;;;;;;;;;12.60;99.90;;;;;;4955910;29;19922;-75
2022/05/12 07:05:39;;;;;;;;;;;12.70;99.90;;;;;;4957130;29;19923;-75
2022/05/12 07:08:05;;;;;;;;;;;12.70;99.90;;;;;;4940465;29;19929;-75
2022/05/12 07:10:31;;;;;;;;;;;12.80;99.90;;;;;;4957092;29;20294;-74
2022/05/12 07:12:59;;;;;;;;;;;12.90;99.90;;;;;;4959116;29;19922;-75
2022/05/12 07:15:27;;;;;;;;;;;13.00;99.90;;;;;;4940920;29;20315;-74
2022/05/12 07:17:55;;;;;;;;;;;13.00;99.90;;;;;;4957722;29;20057;-74
2022/05/12 07:28:38;;;;;;;;;;;14.30;99.90;;;;;;4959333;29;19922;-76
2022/05/12 07:31:05;;;;;;;;;;;15.30;99.90;;;;;;4956858;29;19941;-75
2022/05/12 07:33:34;;;;;;;;;;;16.20;99.90;;;;;;4959117;29;20152;-75
2022/05/12 07:36:01;;;;;;;;;;;17.30;99.90;;;;;;4958804;29;19922;-75
2022/05/12 07:38:27;;;;;;;;;;;18.10;99.90;;;;;;4939234;29;20061;-75
2022/05/12 07:40:53;;;;;;;;;;;18.60;99.90;;;;;;4940110;29;19977;-76
2022/05/12 07:43:19;;;;;;;;;;;19.20;99.90;;;;;;4956095;29;19949;-76
2022/05/12 07:45:44;;;;;;;;;;;19.60;99.90;;;;;;4938661;29;19938;-75
2022/05/12 07:48:11;;;;;;;;;;;20.00;99.90;;;;;;4939749;29;19923;-77
2022/05/12 07:50:36;;;;;;;;;;;20.30;98.30;;;;;;4956183;29;19928;-75
2022/05/12 07:53:02;;;;;;;;;;;20.50;98.30;;;;;;4938157;29;20370;-75
2022/05/12 07:55:28;;;;;;;;;;;20.70;98.40;;;;;;4955980;29;19926;-75
2022/05/12 07:57:53;;;;;;;;;;;21.00;97.90;;;;;;4938812;29;19973;-75
2022/05/12 08:00:19;;;;;;;;;;;21.00;97.60;;;;;;4939069;29;20387;-75
2022/05/12 08:02:45;;;;;;;;;;;21.50;97.60;;;;;;4955135;28;19922;-75
2022/05/12 08:05:11;;;;;;;;;;;21.30;97.80;;;;;;4938565;29;19926;-74
2022/05/12 08:07:37;;;;;;;;;;;21.90;97.70;;;;;;4955691;29;20041;-75
2022/05/12 08:10:05;;;;;;;;;;;21.80;95.80;;;;;;4956035;29;20374;-75
2022/05/12 08:12:34;;;;;;;;;;;21.60;95.60;;;;;;4955729;29;20445;-75
2022/05/12 08:15:00;;;;;;;;;;;21.90;96.80;;;;;;4939708;29;19923;-75
2022/05/12 08:17:26;;;;;;;;;;;22.70;96.40;;;;;;4936662;23;19938;-75
2022/05/12 08:19:51;;;;;;;;;;;22.60;95.10;;;;;;4935529;29;19931;-75
2022/05/12 08:22:20;;;;;;;;;;;23.40;95.20;;;;;;4936129;29;20410;-76
2022/05/12 08:24:46;;;;;;;;;;;23.00;93.90;;;;;;4937939;29;20393;-75
2022/05/12 08:27:13;;;;;;;;;;;23.10;94.60;;;;;;4937014;29;19977;-75
2022/05/12 08:29:41;;;;;;;;;;;23.00;94.30;;;;;;4939482;29;19929;-75
2022/05/12 08:32:06;;;;;;;;;;;23.10;93.30;;;;;;4940202;29;19922;-74
2022/05/12 08:34:32;;;;;;;;;;;23.40;93.60;;;;;;4939284;29;19929;-74
2022/05/12 08:36:58;;;;;;;;;;;23.90;93.50;;;;;;4940548;29;19930;-75
2022/05/12 08:39:23;;;;;;;;;;;23.50;92.50;;;;;;4939281;29;19929;-75
2022/05/12 08:41:57;;;;;;;;;;;23.70;91.70;;;;;;4954771;29;20363;-75
2022/05/12 08:44:23;;;;;;;;;;;23.60;92.40;;;;;;4934457;29;19930;-74
2022/05/12 08:47:00;;;;;;;;;;;23.60;90.90;;;;;;4938067;29;19923;-75
2022/05/12 08:49:41;;;;;;;;;;;23.70;90.50;;;;;;4938658;29;20477;-74
2022/05/12 08:52:10;;;;;;;;;;;23.50;90.80;;;;;;4938852;29;19926;-74
2022/05/12 08:54:36;;;;;;;;;;;23.50;90.20;;;;;;4938677;29;19922;-75
2022/05/12 08:57:03;;;;;;;;;;;23.30;90.90;;;;;;4939610;29;19922;-75
2022/05/12 08:59:29;;;;;;;;;;;23.50;91.20;;;;;;4956971;29;20376;-74
2022/05/12 09:02:15;;;;;;;;;;;23.50;90.90;;;;;;5257252;23;19907;-75
2022/05/12 09:04:43;;;;;;;;;;;23.50;90.70;;;;;;4914074;29;19922;-74
2022/05/12 09:07:15;;;;;;;;;;;23.60;91.40;;;;;;4919011;29;20017;-74
2022/05/12 09:09:43;;;;;;;;;;;23.60;92.10;;;;;;4919855;29;19931;-74
2022/05/12 09:12:28;;;;;;;;;;;23.10;90.40;;;;;;4937175;29;19970;-74
2022/05/12 09:14:59;;;;;;;;;;;22.80;90.90;;;;;;4936671;29;19985;-74
2022/05/12 09:17:27;;;;;;;;;;;22.70;90.70;;;;;;4961019;29;19929;-74
2022/05/12 09:19:53;;;;;;;;;;;22.90;90.40;;;;;;4944913;29;19997;-74
2022/05/12 09:22:27;;;;;;;;;;;23.30;89.60;;;;;;4951868;29;19973;-74
2022/05/12 09:24:53;;;;;;;;;;;23.30;88.40;;;;;;4943272;29;20289;-74
2022/05/12 09:27:25;;;;;;;;;;;22.90;88.40;;;;;;4960231;29;19926;-74
2022/05/12 09:29:54;;;;;;;;;;;22.90;89.50;;;;;;4959318;29;19926;-75
2022/05/12 09:32:25;;;;;;;;;;;23.10;89.40;;;;;;4942465;29;19931;-74
2022/05/12 09:35:14;;;;;;;;;;;22.90;88.80;;;;;;4959217;29;19923;-74
2022/05/12 09:37:41;;;;;;;;;;;22.40;90.00;;;;;;4930832;29;19955;-74
2022/05/12 09:40:34;;;;;;;;;;;22.90;88.60;;;;;;4959259;29;19922;-75
2022/05/12 09:43:02;;;;;;;;;;;22.70;88.20;;;;;;4942070;29;19922;-75
2022/05/12 09:45:30;;;;;;;;;;;22.80;87.70;;;;;;4958287;29;19926;-75
2022/05/12 09:48:07;;;;;;;;;;;23.00;89.10;;;;;;4958922;29;19969;-74
2022/05/12 09:50:33;;;;;;;;;;;22.80;86.90;;;;;;4957767;29;19934;-75
2022/05/12 09:53:00;;;;;;;;;;;22.80;88.30;;;;;;4941129;29;19922;-75
2022/05/12 09:55:27;;;;;;;;;;;22.50;89.00;;;;;;4958449;29;19929;-74
2022/05/12 09:57:58;;;;;;;;;;;22.80;88.70;;;;;;4958037;29;20287;-74
2022/05/12 10:00:30;;;;;;;;;;;23.10;90.00;;;;;;4957506;29;20065;-74
2022/05/12 10:08:27;;;;;;;;;;;24.00;86.20;;;;;;4954196;29;19922;-74
2022/05/12 10:11:01;;;;;;;;;;;23.70;85.40;;;;;;4959587;29;19958;-75
2022/05/12 10:13:36;;;;;;;;;;;23.60;85.40;;;;;;4958916;29;19923;-74
2022/05/12 10:16:02;;;;;;;;;;;23.70;85.90;;;;;;4942091;29;19922;-75
2022/05/12 10:18:28;;;;;;;;;;;23.30;88.00;;;;;;4942489;29;20009;-75
2022/05/12 10:21:01;;;;;;;;;;;23.60;89.10;;;;;;4956050;29;19993;-76
2022/05/12 10:24:00;;;;;;;;;;;24.10;87.30;;;;;;4940330;29;19922;-75
2022/05/12 10:26:36;;;;;;;;;;;24.00;85.80;;;;;;4888305;29;19924;-74
2022/05/12 10:29:08;;;;;;;;;;;23.60;86.30;;;;;;4936050;29;20347;-74
2022/05/12 10:31:42;;;;;;;;;;;23.80;90.00;;;;;;4957559;29;19923;-74
2022/05/12 10:34:20;;;;;;;;;;;23.90;85.40;;;;;;4950289;29;20001;-74
2022/05/12 10:36:51;;;;;;;;;;;23.80;86.40;;;;;;4941410;29;20446;-75
2022/05/12 10:39:31;;;;;;;;;;;23.40;87.20;;;;;;4936709;29;19930;-75
2022/05/12 10:41:57;;;;;;;;;;;23.30;90.20;;;;;;4938614;29;19927;-75
2022/05/12 10:44:32;;;;;;;;;;;24.00;86.70;;;;;;4958027;29;19922;-75
2022/05/12 10:46:58;;;;;;;;;;;23.90;86.40;;;;;;4939977;29;19988;-74
2022/05/12 10:49:23;;;;;;;;;;;24.00;84.80;;;;;;4942268;29;20305;-74
2022/05/12 10:51:58;;;;;;;;;;;23.90;84.50;;;;;;4942949;29;19976;-74
2022/05/12 10:54:27;;;;;;;;;;;23.50;83.80;;;;;;4959331;29;20035;-74
2022/05/12 10:56:58;;;;;;;;;;;23.30;84.50;;;;;;4959869;29;19923;-74
2022/05/12 10:59:30;;;;;;;;;;;23.30;86.10;;;;;;4942455;29;20400;-74
2022/05/12 11:02:04;;;;;;;;;;;22.80;85.10;;;;;;4941334;29;19977;-74
2022/05/12 11:04:36;;;;;;;;;;;22.80;85.10;;;;;;4904204;29;19971;-73
2022/05/12 11:07:07;;;;;;;;;;;23.10;84.60;;;;;;4920357;29;19945;-74
2022/05/12 11:09:44;;;;;;;;;;;23.00;85.50;;;;;;4958335;29;19926;-74
2022/05/12 11:12:26;;;;;;;;;;;23.10;86.40;;;;;;4957933;29;19977;-73
2022/05/12 11:14:57;;;;;;;;;;;22.70;85.20;;;;;;4939691;29;19922;-73
2022/05/12 11:17:36;;;;;;;;;;;22.50;86.10;;;;;;4940888;29;19981;-73
2022/05/12 11:20:32;;;;;;;;;;;22.50;87.80;;;;;;4952015;29;19926;-73
2022/05/12 11:22:58;;;;;;;;;;;22.80;86.60;;;;;;4957374;29;20013;-74
2022/05/12 11:25:37;;;;;;;;;;;22.90;87.40;;;;;;4942070;29;19957;-74
2022/05/12 11:31:12;;;;;;;;;;;22.60;84.40;;;;;;4940901;29;20293;-73
2022/05/12 11:36:13;;;;;;;;;;;22.30;87.20;;;;;;4977094;23;19930;-73
2022/05/12 11:38:39;;;;;;;;;;;22.40;86.10;;;;;;4922159;29;20398;-73
2022/05/12 11:47:14;;;;;;;;;;;22.00;87.40;;;;;;4938634;29;20387;-74
2022/05/12 11:49:40;;;;;;;;;;;22.30;87.50;;;;;;4937685;29;19923;-74
2022/05/12 11:52:32;;;;;;;;;;;22.80;85.50;;;;;;4920617;29;19923;-73
2022/05/12 11:55:01;;;;;;;;;;;22.20;86.80;;;;;;4942570;23;19923;-74
2022/05/12 11:57:32;;;;;;;;;;;22.20;87.30;;;;;;4939239;29;20257;-74
2022/05/12 12:00:03;;;;;;;;;;;22.40;85.50;;;;;;4940230;29;20382;-74
2022/05/12 12:02:29;;;;;;;;;;;22.30;85.60;;;;;;4957091;29;20032;-74
2022/05/12 12:04:59;;;;;;;;;;;22.10;85.00;;;;;;4956513;29;19926;-74
2022/05/12 12:07:27;;;;;;;;;;;22.10;84.90;;;;;;4939862;29;19926;-74
2022/05/12 12:09:54;;;;;;;;;;;22.20;84.20;;;;;;4957398;29;19929;-73
2022/05/12 12:12:38;;;;;;;;;;;22.00;85.70;;;;;;4955603;29;19922;-73
2022/05/12 12:15:04;;;;;;;;;;;21.50;85.00;;;;;;4956392;29;20306;-73
2022/05/12 12:17:32;;;;;;;;;;;21.40;86.50;;;;;;4938986;29;19928;-73
2022/05/12 12:20:02;;;;;;;;;;;21.60;86.50;;;;;;4955598;29;19922;-73
2022/05/12 12:22:34;;;;;;;;;;;21.60;87.90;;;;;;4956019;29;19965;-73
2022/05/12 12:25:29;;;;;;;;;;;21.30;84.10;;;;;;4938328;29;19922;-73
2022/05/12 12:27:57;;;;;;;;;;;21.60;84.80;;;;;;4939345;29;19977;-73
2022/05/12 12:30:37;;;;;;;;;;;21.60;87.50;;;;;;4900986;29;19926;-73
2022/05/12 12:33:29;;;;;;;;;;;21.60;86.00;;;;;;4918078;29;19963;-76
2022/05/12 12:36:15;;;;;;;;;;;21.50;85.10;;;;;;4902520;29;19950;-76
2022/05/12 12:38:43;;;;;;;;;;;21.40;86.10;;;;;;4940346;29;20008;-75
2022/05/12 12:41:10;;;;;;;;;;;21.30;84.90;;;;;;4941128;29;19923;-74
2022/05/12 12:43:37;;;;;;;;;;;21.10;87.40;;;;;;4938640;29;19934;-72
2022/05/12 12:46:17;;;;;;;;;;;20.80;87.70;;;;;;4939272;29;19997;-75
2022/05/12 12:48:48;;;;;;;;;;;20.70;88.00;;;;;;4943666;29;19922;-74
2022/05/12 12:51:25;;;;;;;;;;;20.30;87.70;;;;;;4942001;29;19922;-73
2022/05/12 12:56:35;;;;;;;;;;;20.00;87.90;;;;;;4944552;29;19930;-75
2022/05/12 12:59:04;;;;;;;;;;;20.10;88.80;;;;;;4959861;28;20074;-71
2022/05/12 13:01:48;;;;;;;;;;;19.80;90.20;;;;;;4919254;29;19966;-73
2022/05/12 13:04:16;;;;;;;;;;;19.70;89.60;;;;;;4923637;29;19931;-71
2022/05/12 13:06:47;;;;;;;;;;;19.70;90.30;;;;;;4925746;29;19981;-73
2022/05/12 13:09:13;;;;;;;;;;;19.60;90.00;;;;;;4945510;29;19977;-73
2022/05/12 13:11:39;;;;;;;;;;;19.50;90.80;;;;;;4943701;29;20021;-73
2022/05/12 13:14:11;;;;;;;;;;;19.40;90.60;;;;;;4934013;29;20013;-72
2022/05/12 13:16:42;;;;;;;;;;;19.60;91.00;;;;;;4962895;29;19922;-75
2022/05/12 13:19:08;;;;;;;;;;;19.70;91.40;;;;;;4962619;28;19930;-72
2022/05/12 13:21:45;;;;;;;;;;;19.70;91.50;;;;;;4961736;28;19922;-73
2022/05/12 13:24:13;;;;;;;;;;;19.60;90.60;;;;;;4944259;29;19926;-72
2022/05/12 13:26:40;;;;;;;;;;;19.70;91.20;;;;;;4945423;29;20008;-75
2022/05/12 13:29:07;;;;;;;;;;;19.80;90.60;;;;;;4942941;29;19923;-70
2022/05/12 13:31:35;;;;;;;;;;;19.50;90.10;;;;;;4962173;28;19919;-72
2022/05/12 13:34:19;;;;;;;;;;;19.50;91.00;;;;;;4962756;29;19922;-71
2022/05/12 13:36:47;;;;;;;;;;;19.30;90.90;;;;;;4944743;29;19926;-71
2022/05/12 13:39:31;;;;;;;;;;;19.60;90.70;;;;;;4960867;29;19922;-72
2022/05/12 13:42:00;;;;;;;;;;;19.70;90.50;;;;;;4961434;28;19930;-71
2022/05/12 13:44:27;;;;;;;;;;;20.10;90.80;;;;;;4961365;29;19923;-71
2022/05/12 13:46:54;;;;;;;;;;;19.50;91.10;;;;;;4944987;29;19922;-72
2022/05/12 13:49:28;;;;;;;;;;;19.70;91.20;;;;;;4941670;29;19930;-73
2022/05/12 13:51:55;;;;;;;;;;;19.90;90.90;;;;;;4960377;29;19932;-70
2022/05/12 13:54:25;;;;;;;;;;;20.00;90.50;;;;;;4962658;29;19930;-70
2022/05/12 13:56:51;;;;;;;;;;;20.00;89.80;;;;;;4949894;29;19930;-71
2022/05/12 13:59:23;;;;;;;;;;;19.80;90.90;;;;;;4941360;29;19923;-70
2022/05/12 14:01:50;;;;;;;;;;;19.70;91.10;;;;;;4923077;29;19923;-71
2022/05/12 14:04:18;;;;;;;;;;;19.80;91.20;;;;;;4923706;29;19923;-70
2022/05/12 14:06:50;;;;;;;;;;;19.60;90.60;;;;;;4942220;29;19930;-70
2022/05/12 14:09:18;;;;;;;;;;;19.60;91.00;;;;;;4939494;29;20280;-71
2022/05/12 14:11:56;;;;;;;;;;;19.70;90.90;;;;;;4925542;29;19922;-70
2022/05/12 14:20:03;;;;;;;;;;;19.40;90.60;;;;;;4939434;29;20438;-70
2022/05/12 14:22:31;;;;;;;;;;;19.40;90.30;;;;;;4928740;29;19922;-71
2022/05/12 14:24:56;;;;;;;;;;;19.40;90.30;;;;;;4957760;29;19977;-71
2022/05/12 14:27:22;;;;;;;;;;;19.30;90.80;;;;;;4942883;29;19923;-74
2022/05/12 14:29:47;;;;;;;;;;;19.60;91.30;;;;;;4943162;29;19985;-73
2022/05/12 14:32:17;;;;;;;;;;;19.20;91.90;;;;;;4958070;29;19993;-71
2022/05/12 14:34:47;;;;;;;;;;;19.30;91.90;;;;;;4958669;29;20100;-71
2022/05/12 14:37:13;;;;;;;;;;;19.20;92.70;;;;;;4940091;29;20437;-67
2022/05/12 14:39:38;;;;;;;;;;;19.30;91.30;;;;;;4939431;29;20009;-67
2022/05/12 14:42:04;;;;;;;;;;;19.30;91.30;;;;;;4956207;29;19922;-68
2022/05/12 14:44:30;;;;;;;;;;;19.30;91.70;;;;;;4949182;29;20263;-68
2022/05/12 14:46:56;;;;;;;;;;;19.50;92.20;;;;;;4916157;29;20366;-68
2022/05/12 14:49:30;;;;;;;;;;;19.30;91.20;;;;;;4920463;29;19994;-70
2022/05/12 14:51:57;;;;;;;;;;;19.30;91.50;;;;;;4947445;29;19929;-69
2022/05/12 14:54:23;;;;;;;;;;;19.20;91.70;;;;;;4933844;29;20017;-70
2022/05/12 14:56:48;;;;;;;;;;;19.10;91.70;;;;;;4948761;29;19969;-77
2022/05/12 14:59:14;;;;;;;;;;;19.20;91.30;;;;;;4947379;29;19922;-78
2022/05/12 15:01:39;;;;;;;;;;;19.20;91.80;;;;;;4932619;29;20326;-72
2022/05/12 15:04:05;;;;;;;;;;;18.80;91.80;;;;;;4939909;29;20021;-72
2022/05/12 15:06:31;;;;;;;;;;;18.80;91.70;;;;;;4953633;29;19922;-75
2022/05/12 15:08:57;;;;;;;;;;;18.80;91.60;;;;;;4941339;29;19930;-73
2022/05/12 15:11:23;;;;;;;;;;;18.90;91.80;;;;;;4949990;29;19923;-75
2022/05/12 15:13:53;;;;;;;;;;;18.80;91.50;;;;;;4939399;29;20279;-74